Time;durP1;ratioP1;P1;durP2;ratioP2;P2;SDS_P1;SDS_P2;PMS_P1;PMS_P2;Temp;Humidity;BMP_temperature;BMP_pressure;BME280_temperature;BME280_humidity;BME280_pressure;Samples;Min_cycle;Max_cycle;Signal;HPM_P1;HPM_P2
2022/07/13 00:02:17;;;;;;;6.45;4.10;;;20.70;99.90;;;;;;5038191;28;20591;-62
2022/07/13 00:04:43;;;;;;;7.43;4.28;;;20.60;99.90;;;;;;5032483;28;20665;-62
2022/07/13 00:07:08;;;;;;;7.13;4.07;;;20.80;99.90;;;;;;5040837;28;20762;-62
2022/07/13 00:09:34;;;;;;;8.57;3.60;;;20.90;99.90;;;;;;5036165;28;20150;-62
2022/07/13 00:11:59;;;;;;;5.88;3.83;;;20.70;99.90;;;;;;5046828;28;20052;-62
2022/07/13 00:14:25;;;;;;;9.80;3.90;;;20.70;99.90;;;;;;5041657;28;20037;-62
2022/07/13 00:16:50;;;;;;;4.65;3.90;;;20.60;99.90;;;;;;5036010;28;20650;-62
2022/07/13 00:19:16;;;;;;;6.28;3.72;;;20.60;99.90;;;;;;5035543;28;20036;-62
2022/07/13 00:21:42;;;;;;;6.45;4.20;;;20.70;99.90;;;;;;5048429;28;20025;-61
2022/07/13 00:24:07;;;;;;;5.03;3.80;;;20.70;99.90;;;;;;5051431;28;20025;-61
2022/07/13 00:26:33;;;;;;;5.82;4.20;;;20.70;99.90;;;;;;5043301;28;20018;-61
2022/07/13 00:28:58;;;;;;;4.93;4.22;;;20.70;99.90;;;;;;5049029;28;20021;-61
2022/07/13 00:31:24;;;;;;;6.18;3.70;;;20.80;99.90;;;;;;5040427;28;20516;-61
2022/07/13 00:33:49;;;;;;;4.53;4.13;;;20.90;99.90;;;;;;5051855;28;20162;-62
2022/07/13 00:36:15;;;;;;;6.95;4.45;;;20.80;99.90;;;;;;5043597;28;20036;-61
2022/07/13 00:38:40;;;;;;;7.65;4.15;;;20.80;99.90;;;;;;5046118;28;20369;-62
2022/07/13 00:41:06;;;;;;;5.07;4.32;;;20.90;99.90;;;;;;5042488;28;20094;-61
2022/07/13 00:43:32;;;;;;;5.00;3.90;;;20.80;99.90;;;;;;5048855;28;20572;-61
2022/07/13 00:45:58;;;;;;;6.47;4.50;;;20.90;99.90;;;;;;5045031;28;20033;-61
2022/07/13 00:48:24;;;;;;;6.63;4.40;;;20.70;99.90;;;;;;5043932;28;20025;-62
2022/07/13 00:50:51;;;;;;;5.47;4.50;;;20.60;99.90;;;;;;5046822;28;20272;-61
2022/07/13 00:53:18;;;;;;;5.97;4.57;;;20.70;99.90;;;;;;5046404;28;20392;-62
2022/07/13 00:55:45;;;;;;;8.25;4.95;;;20.60;99.90;;;;;;5045307;28;20610;-61
2022/07/13 00:58:11;;;;;;;5.57;4.25;;;20.60;99.90;;;;;;5040597;28;20024;-61
2022/07/13 01:00:37;;;;;;;7.82;5.15;;;20.50;99.90;;;;;;5043967;28;20028;-61
2022/07/13 01:03:03;;;;;;;10.45;4.78;;;20.50;99.90;;;;;;5038189;28;20465;-62
2022/07/13 01:05:29;;;;;;;5.75;4.43;;;20.50;99.90;;;;;;5049763;28;20106;-61
2022/07/13 01:07:54;;;;;;;6.85;4.85;;;20.40;99.90;;;;;;5041383;28;20033;-61
2022/07/13 01:10:21;;;;;;;6.13;4.35;;;20.40;99.90;;;;;;5050883;28;20056;-62
2022/07/13 01:12:46;;;;;;;7.90;4.57;;;20.40;99.90;;;;;;5042251;28;20028;-61
2022/07/13 01:15:12;;;;;;;6.88;5.05;;;20.40;99.90;;;;;;5046354;28;20034;-62
2022/07/13 01:17:38;;;;;;;5.93;4.97;;;20.50;99.90;;;;;;5041039;28;20028;-61
2022/07/13 01:20:06;;;;;;;6.93;4.40;;;20.50;99.90;;;;;;5047687;28;20148;-61
2022/07/13 01:22:36;;;;;;;8.00;4.50;;;20.40;99.90;;;;;;5042264;28;20028;-61
2022/07/13 01:25:04;;;;;;;6.85;4.78;;;20.40;99.90;;;;;;5044182;28;20025;-61
2022/07/13 01:27:32;;;;;;;5.95;4.78;;;20.40;99.90;;;;;;5047766;28;20028;-61
2022/07/13 01:29:58;;;;;;;8.63;5.00;;;20.40;99.90;;;;;;5047549;28;20024;-62
2022/07/13 01:32:23;;;;;;;8.77;5.15;;;20.40;99.90;;;;;;5044516;28;20385;-61
2022/07/13 01:34:49;;;;;;;9.98;4.93;;;20.50;99.90;;;;;;5043374;28;20109;-62
2022/07/13 01:37:15;;;;;;;8.50;5.00;;;20.60;99.90;;;;;;5046412;28;20414;-62
2022/07/13 01:39:40;;;;;;;7.18;4.68;;;20.70;99.90;;;;;;5041264;28;20518;-61
2022/07/13 01:42:06;;;;;;;6.88;4.80;;;20.50;99.90;;;;;;5040727;28;20025;-61
2022/07/13 01:44:31;;;;;;;6.75;4.88;;;20.50;99.90;;;;;;5047026;28;20041;-62
2022/07/13 01:46:57;;;;;;;8.50;4.97;;;20.30;99.90;;;;;;5042292;28;20116;-62
2022/07/13 01:49:23;;;;;;;7.20;4.90;;;20.30;99.90;;;;;;5039545;28;20465;-62
2022/07/13 01:51:48;;;;;;;8.30;5.00;;;20.20;99.90;;;;;;5048944;28;20480;-61
2022/07/13 01:54:14;;;;;;;7.90;5.30;;;20.10;99.90;;;;;;5054218;28;20473;-62
2022/07/13 01:56:39;;;;;;;7.60;5.47;;;20.10;99.90;;;;;;5038873;28;20045;-62
2022/07/13 01:59:05;;;;;;;5.30;4.65;;;20.10;99.90;;;;;;5040828;28;20013;-61
2022/07/13 02:01:30;;;;;;;7.00;4.97;;;20.30;99.90;;;;;;5045098;28;20029;-61
2022/07/13 02:03:56;;;;;;;6.38;5.25;;;20.50;99.90;;;;;;5042695;28;20036;-62
2022/07/13 02:06:22;;;;;;;6.63;5.28;;;20.40;99.90;;;;;;5044411;28;20025;-61
2022/07/13 02:08:47;;;;;;;6.30;4.68;;;20.20;99.90;;;;;;5031718;28;20605;-61
2022/07/13 02:11:17;;;;;;;7.00;5.28;;;20.20;99.90;;;;;;5042151;28;20249;-61
2022/07/13 02:13:44;;;;;;;7.78;5.13;;;20.10;99.90;;;;;;5044811;28;20492;-61
2022/07/13 02:16:11;;;;;;;6.50;5.30;;;20.20;99.90;;;;;;5048600;28;20568;-62
2022/07/13 02:18:37;;;;;;;9.57;5.63;;;20.30;99.90;;;;;;5046144;28;20112;-61
2022/07/13 02:21:02;;;;;;;7.60;5.00;;;20.40;99.90;;;;;;5045030;28;20104;-62
2022/07/13 02:23:28;;;;;;;8.85;5.38;;;20.30;99.90;;;;;;5042576;28;20115;-62
2022/07/13 02:25:53;;;;;;;10.23;5.43;;;20.30;99.90;;;;;;5042859;28;20496;-61
2022/07/13 02:28:19;;;;;;;9.30;5.45;;;20.40;99.90;;;;;;5048800;28;20665;-62
2022/07/13 02:30:44;;;;;;;8.20;5.20;;;20.40;99.90;;;;;;5045998;28;20028;-62
2022/07/13 02:33:11;;;;;;;9.93;5.38;;;20.40;99.90;;;;;;5042735;28;20028;-61
2022/07/13 02:35:36;;;;;;;6.35;5.05;;;20.30;99.90;;;;;;5046293;28;20372;-61
2022/07/13 02:38:02;;;;;;;9.63;5.15;;;20.20;99.90;;;;;;5052084;28;20242;-62
2022/07/13 02:40:27;;;;;;;6.32;4.88;;;20.20;99.90;;;;;;5045700;28;20679;-61
2022/07/13 02:42:53;;;;;;;6.15;4.60;;;20.30;99.90;;;;;;5037443;28;20029;-62
2022/07/13 02:45:19;;;;;;;7.47;5.28;;;20.20;99.90;;;;;;5042456;28;20064;-61
2022/07/13 02:47:44;;;;;;;7.82;5.38;;;20.20;99.90;;;;;;5040843;28;20036;-61
2022/07/13 02:50:10;;;;;;;6.25;5.18;;;20.20;99.90;;;;;;5040585;28;20082;-62
2022/07/13 02:52:36;;;;;;;7.25;5.03;;;20.20;99.90;;;;;;5040404;28;20675;-62
2022/07/13 02:55:02;;;;;;;9.27;5.60;;;20.20;99.90;;;;;;5045356;28;20029;-62
2022/07/13 02:57:27;;;;;;;6.25;5.05;;;20.20;99.90;;;;;;5037582;28;20025;-61
2022/07/13 02:59:53;;;;;;;7.97;5.10;;;20.30;99.90;;;;;;5042452;28;20029;-61
2022/07/13 03:02:18;;;;;;;9.00;5.53;;;20.20;99.90;;;;;;5040660;28;20435;-61
2022/07/13 03:04:44;;;;;;;5.85;5.20;;;20.20;99.90;;;;;;5041071;28;20086;-62
2022/07/13 03:07:10;;;;;;;5.85;4.88;;;20.20;99.90;;;;;;5039506;28;20099;-61
2022/07/13 03:09:36;;;;;;;7.50;5.05;;;20.10;99.90;;;;;;5043942;28;20021;-62
2022/07/13 03:12:02;;;;;;;8.07;5.25;;;20.20;99.90;;;;;;5043492;28;20398;-61
2022/07/13 03:14:27;;;;;;;7.38;5.13;;;20.10;99.90;;;;;;5045649;28;20147;-62
2022/07/13 03:16:53;;;;;;;8.02;5.10;;;20.20;99.90;;;;;;5041074;28;20039;-61
2022/07/13 03:19:18;;;;;;;6.63;5.30;;;20.20;99.90;;;;;;5041122;28;20039;-61
2022/07/13 03:21:44;;;;;;;8.93;5.00;;;20.10;99.90;;;;;;5037364;28;20036;-62
2022/07/13 03:24:09;;;;;;;6.20;4.93;;;20.20;99.90;;;;;;5051848;28;20036;-61
2022/07/13 03:26:35;;;;;;;6.65;5.18;;;20.30;99.90;;;;;;5045539;28;20025;-61
2022/07/13 03:29:00;;;;;;;7.15;5.10;;;20.20;99.90;;;;;;5043306;28;20296;-61
2022/07/13 03:31:26;;;;;;;8.63;5.40;;;20.10;99.90;;;;;;5050500;28;20638;-62
2022/07/13 03:33:52;;;;;;;7.60;5.30;;;20.10;99.90;;;;;;5044264;28;20578;-61
2022/07/13 03:36:17;;;;;;;6.72;4.88;;;20.10;99.90;;;;;;5042258;28;20024;-61
2022/07/13 03:38:43;;;;;;;9.35;4.90;;;20.10;99.90;;;;;;5041881;28;20029;-62
2022/07/13 03:41:08;;;;;;;8.00;4.88;;;20.10;99.90;;;;;;5047396;28;20024;-61
2022/07/13 03:43:34;;;;;;;7.85;5.00;;;20.20;99.90;;;;;;5048070;28;20029;-61
2022/07/13 03:45:59;;;;;;;9.45;5.00;;;20.30;99.90;;;;;;5044283;28;20087;-61
2022/07/13 03:48:25;;;;;;;7.97;5.38;;;20.20;99.90;;;;;;5042152;28;20025;-62
2022/07/13 03:50:50;;;;;;;9.13;5.50;;;20.30;99.90;;;;;;5050370;28;20106;-61
2022/07/13 03:53:17;;;;;;;9.02;5.25;;;20.20;99.90;;;;;;5047231;28;20051;-61
2022/07/13 03:55:43;;;;;;;8.65;5.03;;;20.30;99.90;;;;;;5040536;28;20078;-62
2022/07/13 03:58:10;;;;;;;5.63;4.45;;;20.30;99.90;;;;;;5040902;28;20092;-62
2022/07/13 04:00:37;;;;;;;8.35;5.00;;;20.20;99.90;;;;;;5048331;28;20119;-61
2022/07/13 04:03:03;;;;;;;7.53;4.40;;;20.10;99.90;;;;;;5036566;28;20040;-61
2022/07/13 04:05:29;;;;;;;7.57;4.38;;;20.10;99.90;;;;;;5036330;28;20399;-61
2022/07/13 04:07:54;;;;;;;4.82;4.00;;;20.10;99.90;;;;;;5037220;28;20113;-62
2022/07/13 04:10:21;;;;;;;9.30;4.93;;;20.20;99.90;;;;;;5039433;28;20029;-61
2022/07/13 04:12:47;;;;;;;6.15;4.32;;;20.30;99.90;;;;;;5048584;28;20024;-62
2022/07/13 04:15:13;;;;;;;7.90;4.55;;;20.20;99.90;;;;;;5038961;28;20108;-62
2022/07/13 04:17:40;;;;;;;7.82;4.78;;;20.50;99.90;;;;;;5041272;28;20099;-61
2022/07/13 04:20:07;;;;;;;5.32;4.22;;;20.50;99.90;;;;;;5047359;28;20032;-61
2022/07/13 04:22:33;;;;;;;6.22;4.32;;;20.40;99.90;;;;;;5046776;28;20546;-61
2022/07/13 04:24:58;;;;;;;7.78;4.57;;;20.30;99.90;;;;;;5043733;28;20020;-62
2022/07/13 04:27:24;;;;;;;7.60;4.10;;;20.40;99.90;;;;;;5042402;28;20028;-62
2022/07/13 04:29:49;;;;;;;9.27;5.22;;;20.60;99.90;;;;;;5044322;28;20380;-62
2022/07/13 04:32:15;;;;;;;6.18;4.32;;;20.50;99.90;;;;;;5041092;28;20498;-61
2022/07/13 04:34:41;;;;;;;6.55;4.25;;;20.30;99.90;;;;;;5047403;28;20033;-61
2022/07/13 04:37:06;;;;;;;6.45;4.13;;;20.30;99.90;;;;;;5041976;28;20036;-62
2022/07/13 04:39:32;;;;;;;6.35;4.22;;;20.30;99.90;;;;;;5037688;28;20037;-62
2022/07/13 04:41:59;;;;;;;5.28;4.10;;;20.40;99.90;;;;;;5039996;28;20024;-62
2022/07/13 04:44:26;;;;;;;6.55;4.20;;;20.50;99.90;;;;;;5039007;28;20033;-62
2022/07/13 04:46:52;;;;;;;7.50;4.15;;;20.60;99.90;;;;;;5037603;28;20028;-61
2022/07/13 04:49:19;;;;;;;6.45;3.90;;;20.60;99.90;;;;;;5043382;28;20564;-62
2022/07/13 04:51:51;;;;;;;7.18;4.38;;;20.60;99.90;;;;;;5048487;28;20044;-61
2022/07/13 04:54:20;;;;;;;8.60;3.97;;;20.60;99.90;;;;;;5049120;28;20323;-61
2022/07/13 04:56:46;;;;;;;7.07;4.05;;;20.50;99.90;;;;;;5040366;28;20024;-61
2022/07/13 04:59:12;;;;;;;6.65;4.00;;;20.50;99.90;;;;;;5039908;28;20029;-62
2022/07/13 05:01:38;;;;;;;4.78;3.40;;;20.60;99.90;;;;;;5036713;28;20413;-62
2022/07/13 05:04:04;;;;;;;8.02;3.78;;;20.70;99.90;;;;;;5043357;28;20025;-61
2022/07/13 05:06:30;;;;;;;4.70;3.60;;;20.70;99.90;;;;;;5033813;28;20578;-61
2022/07/13 05:08:56;;;;;;;6.78;4.00;;;20.70;99.90;;;;;;5038305;28;20021;-62
2022/07/13 05:11:22;;;;;;;8.50;3.97;;;20.80;99.90;;;;;;5040356;28;20808;-62
2022/07/13 05:13:48;;;;;;;5.85;3.50;;;20.90;99.90;;;;;;5044822;28;20021;-61
2022/07/13 05:16:14;;;;;;;7.20;3.60;;;21.10;99.90;;;;;;5046294;28;20037;-62
2022/07/13 05:18:39;;;;;;;8.18;3.70;;;21.20;99.90;;;;;;5045026;28;20058;-62
2022/07/13 05:21:05;;;;;;;6.70;3.75;;;21.20;99.90;;;;;;5045491;28;20024;-62
2022/07/13 05:23:31;;;;;;;5.60;3.40;;;21.20;99.90;;;;;;5045673;28;20044;-62
2022/07/13 05:25:57;;;;;;;5.50;3.10;;;21.20;99.90;;;;;;5042680;28;20030;-62
2022/07/13 05:28:23;;;;;;;5.65;3.00;;;21.30;99.90;;;;;;5048453;28;20024;-62
2022/07/13 05:30:49;;;;;;;7.47;3.30;;;21.40;99.90;;;;;;5053203;28;20028;-61
2022/07/13 05:33:16;;;;;;;6.18;3.20;;;21.40;99.90;;;;;;5039935;28;20102;-61
2022/07/13 05:35:42;;;;;;;4.53;2.90;;;21.40;99.90;;;;;;5045131;28;20020;-62
2022/07/13 05:38:07;;;;;;;4.53;2.83;;;21.50;99.90;;;;;;5042152;28;20028;-62
2022/07/13 05:40:33;;;;;;;4.63;3.40;;;21.70;99.90;;;;;;5044151;28;20518;-62
2022/07/13 05:42:58;;;;;;;5.97;2.90;;;21.80;99.90;;;;;;5047533;28;20083;-62
2022/07/13 05:45:25;;;;;;;5.28;3.30;;;21.80;99.90;;;;;;5040507;28;20400;-61
2022/07/13 05:47:50;;;;;;;8.18;3.03;;;21.80;99.90;;;;;;5048220;28;20361;-61
2022/07/13 05:50:16;;;;;;;5.68;3.10;;;21.90;99.90;;;;;;5046724;28;20398;-61
2022/07/13 05:52:43;;;;;;;8.27;3.30;;;21.90;99.90;;;;;;5047541;28;20029;-63
2022/07/13 05:55:10;;;;;;;5.72;2.70;;;21.80;99.90;;;;;;5049531;28;20053;-63
2022/07/13 05:57:35;;;;;;;6.68;3.38;;;21.80;99.90;;;;;;5039908;28;20036;-63
2022/07/13 06:00:02;;;;;;;5.88;3.10;;;21.90;99.90;;;;;;5047197;28;20029;-63
2022/07/13 06:02:28;;;;;;;9.38;3.35;;;22.00;99.90;;;;;;5046982;28;20423;-64
2022/07/13 06:04:53;;;;;;;8.00;2.83;;;22.20;99.90;;;;;;5041904;28;20060;-63
2022/07/13 06:07:19;;;;;;;89.03;69.68;;;22.10;99.90;;;;;;5041310;28;20017;-60
2022/07/13 06:09:44;;;;;;;78.00;57.72;;;22.10;99.90;;;;;;5043748;28;20051;-62
2022/07/13 06:12:10;;;;;;;9.43;3.30;;;22.30;99.90;;;;;;5039512;28;20021;-62
2022/07/13 06:14:36;;;;;;;5.05;2.42;;;22.40;99.90;;;;;;5052320;28;20256;-62
2022/07/13 06:17:01;;;;;;;7.22;2.45;;;22.40;99.90;;;;;;5044252;28;20103;-62
2022/07/13 06:19:27;;;;;;;12.85;2.80;;;22.50;99.90;;;;;;5051171;28;20191;-62
2022/07/13 06:21:52;;;;;;;10.00;2.80;;;22.50;99.90;;;;;;5042572;28;20051;-62
2022/07/13 06:24:18;;;;;;;6.20;2.20;;;22.60;99.90;;;;;;5038613;28;20056;-62
2022/07/13 06:26:44;;;;;;;5.95;2.25;;;22.60;99.90;;;;;;5036462;28;21047;-62
2022/07/13 06:29:10;;;;;;;4.55;2.72;;;22.60;99.90;;;;;;5043104;28;20484;-62
2022/07/13 06:31:35;;;;;;;7.68;2.30;;;22.60;99.90;;;;;;5041723;28;20067;-62
2022/07/13 06:34:01;;;;;;;7.13;2.45;;;22.60;99.90;;;;;;5045553;28;20032;-62
2022/07/13 06:36:27;;;;;;;5.65;2.40;;;22.60;99.90;;;;;;5036933;28;20037;-63
2022/07/13 06:38:52;;;;;;;7.90;2.47;;;22.60;99.90;;;;;;5039425;28;20043;-62
2022/07/13 06:41:18;;;;;;;4.70;2.25;;;22.60;99.90;;;;;;5040238;28;20094;-62
2022/07/13 06:43:44;;;;;;;5.72;2.70;;;22.60;99.90;;;;;;5043378;28;20032;-63
2022/07/13 06:46:10;;;;;;;6.25;2.58;;;22.70;99.90;;;;;;5045461;28;20024;-62
2022/07/13 06:48:36;;;;;;;8.15;2.72;;;22.90;99.90;;;;;;5045885;28;20404;-62
2022/07/13 06:51:02;;;;;;;7.13;2.50;;;22.90;99.90;;;;;;5045148;28;20033;-62
2022/07/13 06:53:27;;;;;;;5.70;2.20;;;23.00;99.90;;;;;;5042769;28;20021;-62
2022/07/13 06:55:54;;;;;;;6.22;2.58;;;23.00;99.90;;;;;;5039727;28;20113;-62
2022/07/13 06:58:21;;;;;;;6.60;2.72;;;23.10;99.90;;;;;;5039807;28;20115;-62
2022/07/13 07:00:47;;;;;;;6.18;2.25;;;23.20;99.90;;;;;;5037958;28;20072;-62
2022/07/13 07:03:12;;;;;;;4.93;2.03;;;23.20;99.90;;;;;;5034309;28;20424;-62
2022/07/13 07:05:39;;;;;;;5.80;2.28;;;23.20;99.90;;;;;;5034274;28;20054;-62
2022/07/13 07:08:05;;;;;;;7.25;2.33;;;23.20;99.90;;;;;;5040488;28;20032;-62
2022/07/13 07:10:30;;;;;;;6.03;2.60;;;23.30;99.90;;;;;;5036314;28;20029;-63
2022/07/13 07:12:56;;;;;;;4.05;2.38;;;23.50;99.90;;;;;;5048664;28;20031;-63
2022/07/13 07:15:23;;;;;;;7.50;2.40;;;23.70;99.90;;;;;;5039175;28;20104;-63
2022/07/13 07:17:49;;;;;;;6.20;2.38;;;23.80;99.90;;;;;;5035713;28;20029;-63
2022/07/13 07:20:16;;;;;;;5.80;2.60;;;23.90;99.90;;;;;;5039058;28;20490;-63
2022/07/13 07:22:42;;;;;;;4.63;2.70;;;24.10;99.90;;;;;;5049935;28;20412;-62
2022/07/13 07:25:08;;;;;;;6.70;2.60;;;24.20;99.90;;;;;;5042581;28;20122;-63
2022/07/13 07:27:34;;;;;;;7.72;2.45;;;24.20;99.90;;;;;;5041415;28;20680;-63
2022/07/13 07:30:00;;;;;;;5.65;2.40;;;24.10;99.90;;;;;;5037764;28;20028;-63
2022/07/13 07:32:26;;;;;;;4.68;2.50;;;24.20;99.90;;;;;;5052874;28;20033;-63
2022/07/13 07:34:52;;;;;;;6.60;2.30;;;24.20;99.90;;;;;;5039541;28;20025;-63
2022/07/13 07:37:21;;;;;;;5.45;2.50;;;24.30;99.90;;;;;;5047820;28;20112;-62
2022/07/13 07:39:48;;;;;;;4.88;2.47;;;24.30;99.90;;;;;;5035997;28;20033;-63
2022/07/13 07:42:13;;;;;;;4.97;2.20;;;24.30;99.90;;;;;;5036900;28;20139;-62
2022/07/13 07:44:39;;;;;;;6.35;2.47;;;24.40;99.90;;;;;;5038871;28;20424;-63
2022/07/13 07:47:04;;;;;;;7.50;2.45;;;24.60;99.90;;;;;;5033136;28;20020;-63
2022/07/13 07:49:30;;;;;;;5.75;2.47;;;24.60;99.90;;;;;;5035638;28;20025;-63
2022/07/13 07:51:56;;;;;;;7.78;2.38;;;24.60;99.90;;;;;;5039930;28;20123;-63
2022/07/13 07:54:21;;;;;;;21.25;15.70;;;24.70;99.90;;;;;;5036089;28;20063;-61
2022/07/13 07:56:48;;;;;;;6.22;2.63;;;24.80;99.90;;;;;;5037495;28;20036;-63
2022/07/13 07:59:14;;;;;;;5.85;2.25;;;24.80;99.90;;;;;;5038598;28;20412;-63
2022/07/13 08:01:40;;;;;;;4.15;2.38;;;24.90;99.90;;;;;;5034298;28;20021;-62
2022/07/13 08:04:06;;;;;;;4.15;2.60;;;24.80;99.90;;;;;;5042660;28;20024;-63
2022/07/13 08:06:31;;;;;;;6.90;2.55;;;24.80;99.90;;;;;;5042140;28;20033;-62
2022/07/13 08:08:57;;;;;;;6.57;2.40;;;24.80;99.90;;;;;;5027552;28;20031;-62
2022/07/13 08:11:23;;;;;;;7.22;2.60;;;24.90;99.90;;;;;;5042675;28;20025;-62
2022/07/13 08:13:49;;;;;;;5.93;2.55;;;24.90;99.90;;;;;;5038454;28;20030;-62
2022/07/13 08:16:16;;;;;;;8.32;2.28;;;24.90;99.90;;;;;;5041778;28;20041;-62
2022/07/13 08:18:42;;;;;;;5.68;2.90;;;25.00;99.90;;;;;;5040349;28;20039;-63
2022/07/13 08:21:08;;;;;;;5.18;2.67;;;25.10;99.90;;;;;;5049369;28;20037;-63
2022/07/13 08:23:52;;;;;;;11.70;2.83;;;25.10;99.90;;;;;;5042624;28;20661;-63
2022/07/13 08:26:22;;;;;;;12.00;2.80;;;25.10;99.90;;;;;;5036006;28;20044;-62
2022/07/13 08:28:49;;;;;;;7.18;2.67;;;25.20;99.90;;;;;;5038054;28;20025;-63
2022/07/13 08:31:15;;;;;;;5.53;2.67;;;25.10;99.90;;;;;;5042629;28;20029;-63
2022/07/13 08:39:11;;;;;;;5.47;2.88;;;25.50;99.90;;;;;;5048064;28;20028;-63
2022/07/13 08:41:39;;;;;;;4.32;2.65;;;25.80;99.90;;;;;;5051129;28;20027;-63
2022/07/13 08:44:05;;;;;;;7.43;3.45;;;25.80;99.90;;;;;;5045415;28;20161;-63
2022/07/13 08:46:31;;;;;;;5.43;2.70;;;26.10;99.90;;;;;;5045137;28;20021;-63
2022/07/13 08:48:57;;;;;;;4.35;2.65;;;26.10;99.90;;;;;;5039580;28;20519;-62
2022/07/13 08:51:24;;;;;;;4.60;2.75;;;26.20;99.90;;;;;;5047403;28;20533;-63
2022/07/13 08:53:51;;;;;;;6.03;2.47;;;26.00;99.90;;;;;;5049338;28;20111;-63
2022/07/13 08:56:17;;;;;;;5.72;2.88;;;26.00;99.90;;;;;;5046800;28;20380;-63
2022/07/13 08:58:43;;;;;;;9.23;2.75;;;26.20;99.90;;;;;;5041023;28;20021;-63
2022/07/13 09:01:09;;;;;;;5.82;2.47;;;26.10;99.90;;;;;;5044969;28;20024;-63
2022/07/13 09:03:35;;;;;;;9.00;3.28;;;26.20;99.90;;;;;;5034439;28;20029;-63
2022/07/13 09:06:01;;;;;;;12.00;3.00;;;26.10;99.90;;;;;;5049686;28;20405;-63
2022/07/13 09:08:27;;;;;;;4.60;2.55;;;26.00;99.90;;;;;;5041142;28;20025;-63
2022/07/13 09:10:57;;;;;;;5.95;2.65;;;26.20;99.90;;;;;;5046747;28;20043;-64
2022/07/13 09:13:39;;;;;;;15.70;3.25;;;26.20;99.90;;;;;;5043408;28;20016;-63
2022/07/13 09:16:26;;;;;;;4.93;2.80;;;26.30;99.90;;;;;;5040302;28;20033;-62
2022/07/13 09:18:54;;;;;;;7.25;2.65;;;26.30;99.90;;;;;;5038063;28;20027;-62
2022/07/13 09:21:22;;;;;;;8.80;2.80;;;26.20;99.90;;;;;;5043034;28;20781;-63
2022/07/13 09:23:52;;;;;;;5.60;2.50;;;26.30;99.90;;;;;;5047499;28;20029;-63
2022/07/13 09:26:18;;;;;;;6.35;2.58;;;26.50;99.90;;;;;;5051284;28;20029;-63
2022/07/13 09:28:45;;;;;;;5.05;2.67;;;26.80;99.90;;;;;;5045238;28;20481;-63
2022/07/13 09:31:12;;;;;;;5.43;2.80;;;26.70;99.90;;;;;;5044191;28;20124;-63
2022/07/13 09:33:39;;;;;;;8.13;2.80;;;26.70;99.90;;;;;;5044976;28;20467;-63
2022/07/13 09:36:25;;;;;;;6.28;2.50;;;26.70;99.90;;;;;;5045364;28;20029;-63
2022/07/13 09:38:54;;;;;;;8.52;2.80;;;26.70;99.90;;;;;;5035091;28;20494;-63
2022/07/13 09:41:24;;;;;;;8.18;2.70;;;26.80;99.90;;;;;;5047340;28;20031;-63
2022/07/13 09:46:57;;;;;;;7.45;2.63;;;26.90;99.90;;;;;;5036752;28;20199;-63
2022/07/13 09:49:29;;;;;;;3.97;2.55;;;27.10;99.90;;;;;;5039139;28;20032;-63
2022/07/13 09:51:59;;;;;;;6.07;2.60;;;27.00;99.90;;;;;;5043463;28;20594;-63
2022/07/13 09:54:30;;;;;;;5.07;2.22;;;26.90;99.90;;;;;;5046965;28;20480;-63
2022/07/13 09:57:01;;;;;;;7.82;2.53;;;26.90;99.90;;;;;;5045232;28;20622;-63
2022/07/13 09:59:28;;;;;;;6.50;2.50;;;26.90;99.90;;;;;;5052469;28;20096;-63
2022/07/13 10:01:54;;;;;;;6.95;2.22;;;27.00;99.90;;;;;;5039339;28;20116;-63
2022/07/13 10:04:21;;;;;;;4.18;2.63;;;27.00;99.90;;;;;;5049058;28;20480;-64
2022/07/13 10:06:46;;;;;;;6.63;2.63;;;27.30;99.90;;;;;;5047645;28;20056;-63
2022/07/13 10:09:18;;;;;;;6.25;2.25;;;28.00;99.90;;;;;;5046459;28;20063;-63
2022/07/13 10:11:44;;;;;;;5.85;2.53;;;27.90;99.90;;;;;;5040187;28;20610;-63
2022/07/13 10:14:11;;;;;;;5.10;2.25;;;28.10;99.90;;;;;;5041313;28;20024;-63
2022/07/13 10:16:36;;;;;;;4.43;2.20;;;28.10;99.90;;;;;;5045379;28;20602;-63
2022/07/13 10:19:05;;;;;;;4.82;2.40;;;28.10;99.90;;;;;;5041963;28;20019;-63
2022/07/13 10:21:31;;;;;;;4.35;2.30;;;28.10;99.90;;;;;;5047261;28;20036;-63
2022/07/13 10:23:59;;;;;;;4.40;1.95;;;;;;;;;;5052122;28;20521;-63
2022/07/13 10:26:25;;;;;;;4.90;2.08;;;27.70;99.90;;;;;;5041962;28;20106;-63
2022/07/13 10:29:11;;;;;;;7.43;2.38;;;;;;;;;;5043143;28;20678;-63
2022/07/13 10:31:39;;;;;;;6.88;2.33;;;27.40;99.90;;;;;;5049025;28;20047;-63
2022/07/13 10:34:07;;;;;;;4.47;2.30;;;27.60;99.90;;;;;;5035853;28;20103;-63
2022/07/13 10:36:49;;;;;;;4.22;2.20;;;27.60;99.90;;;;;;5046968;28;20583;-63
2022/07/13 10:39:16;;;;;;;6.18;2.13;;;27.70;99.90;;;;;;5047323;28;20170;-63
2022/07/13 10:42:07;;;;;;;7.93;2.53;;;27.60;99.90;;;;;;5042533;28;20032;-63
2022/07/13 10:44:38;;;;;;;6.90;2.83;;;27.50;99.90;;;;;;5046965;28;20036;-63
2022/07/13 10:47:05;;;;;;;5.03;2.40;;;;;;;;;;5035893;28;20017;-63
2022/07/13 10:49:35;;;;;;;4.20;2.47;;;;;;;;;;5045008;28;20017;-63
2022/07/13 10:52:19;;;;;;;7.10;2.42;;;26.90;99.90;;;;;;5045266;28;20123;-63
2022/07/13 10:55:05;;;;;;;9.32;2.83;;;;;;;;;;5051809;28;20701;-63
2022/07/13 10:57:35;;;;;;;7.50;2.75;;;27.20;99.90;;;;;;5044235;28;20442;-63
2022/07/13 11:00:16;;;;;;;4.72;2.55;;;27.10;99.90;;;;;;5041693;28;20044;-63
2022/07/13 11:02:50;;;;;;;4.75;2.10;;;27.20;99.90;;;;;;5045024;28;20343;-64
2022/07/13 11:05:18;;;;;;;6.50;2.42;;;27.40;99.90;;;;;;5048917;28;20032;-63
2022/07/13 11:07:49;;;;;;;5.45;2.30;;;;;;;;;;5035459;28;20082;-63
2022/07/13 11:10:25;;;;;;;8.63;2.75;;;;;;;;;;5048179;28;20029;-63
2022/07/13 11:13:03;;;;;;;3.88;2.30;;;27.60;99.90;;;;;;5037388;28;20021;-63
2022/07/13 11:15:42;;;;;;;6.75;2.67;;;27.40;99.90;;;;;;5045859;28;20060;-63
2022/07/13 11:18:30;;;;;;;5.22;2.60;;;27.50;99.90;;;;;;5041514;28;20036;-63
2022/07/13 11:20:59;;;;;;;5.53;2.55;;;;;;;;;;5040779;28;20067;-63
2022/07/13 11:26:40;;;;;;;7.75;3.55;;;27.80;99.90;;;;;;5042364;28;20446;-63
2022/07/13 11:29:32;;;;;;;9.82;3.65;;;27.80;99.90;;;;;;5044350;28;20009;-63
2022/07/13 11:32:02;;;;;;;6.55;2.80;;;27.90;99.90;;;;;;5039274;28;20039;-63
2022/07/13 11:34:29;;;;;;;4.97;2.70;;;28.00;99.90;;;;;;5041389;28;20078;-63
2022/07/13 11:36:57;;;;;;;4.88;3.15;;;28.10;99.90;;;;;;5046687;28;20051;-63
2022/07/13 11:39:26;;;;;;;5.70;2.88;;;;;;;;;;5045220;28;20490;-63
2022/07/13 11:41:54;;;;;;;5.45;2.65;;;27.70;99.90;;;;;;5037934;28;20074;-63
2022/07/13 11:44:30;;;;;;;6.53;2.70;;;27.90;99.90;;;;;;5049151;28;20035;-63
2022/07/13 11:46:57;;;;;;;6.63;2.38;;;28.00;99.90;;;;;;5043009;28;20020;-63
2022/07/13 11:49:24;;;;;;;8.48;2.92;;;27.90;99.90;;;;;;5046663;28;20453;-63
2022/07/13 11:51:50;;;;;;;7.53;2.92;;;28.00;99.90;;;;;;5038628;28;20013;-63
2022/07/13 11:54:19;;;;;;;9.18;3.17;;;28.00;99.90;;;;;;5043810;28;20027;-63
2022/07/13 11:56:54;;;;;;;5.25;2.78;;;28.00;99.90;;;;;;5044736;28;20139;-63
2022/07/13 11:59:37;;;;;;;5.20;2.85;;;28.10;99.90;;;;;;5047433;28;20129;-63
2022/07/13 12:02:03;;;;;;;6.80;3.20;;;28.20;99.90;;;;;;5032207;28;20473;-63
2022/07/13 12:04:32;;;;;;;4.75;2.70;;;28.30;99.90;;;;;;5031202;28;20014;-63
2022/07/13 12:07:23;;;;;;;5.43;3.10;;;28.00;99.90;;;;;;5033007;28;20447;-63
2022/07/13 12:10:03;;;;;;;6.78;2.90;;;28.50;99.90;;;;;;5036181;28;20597;-63
2022/07/13 12:12:32;;;;;;;9.52;3.17;;;28.20;99.90;;;;;;5039746;28;20035;-63
2022/07/13 12:14:58;;;;;;;7.20;3.20;;;28.30;99.90;;;;;;5043146;28;20037;-63
2022/07/13 12:17:25;;;;;;;7.30;3.50;;;28.60;99.90;;;;;;5046235;28;20051;-63
2022/07/13 12:19:51;;;;;;;7.40;3.20;;;28.40;99.90;;;;;;5046750;28;20032;-63
2022/07/13 12:22:21;;;;;;;5.47;3.30;;;28.10;99.90;;;;;;5053526;28;20024;-63
2022/07/13 12:24:47;;;;;;;5.15;3.05;;;27.90;99.90;;;;;;5046516;28;20483;-63
2022/07/13 12:27:26;;;;;;;9.40;3.10;;;28.10;99.90;;;;;;5049479;28;20024;-63
2022/07/13 12:30:09;;;;;;;5.72;3.08;;;28.30;99.90;;;;;;5045594;28;20037;-63
2022/07/13 12:32:56;;;;;;;5.75;2.70;;;28.20;99.90;;;;;;5036694;28;20036;-63
2022/07/13 12:35:36;;;;;;;9.40;2.65;;;28.30;99.90;;;;;;5052194;28;20063;-63
2022/07/13 12:38:04;;;;;;;3.72;2.58;;;28.20;99.90;;;;;;5041987;28;20366;-63
2022/07/13 12:40:49;;;;;;;4.70;2.35;;;28.30;99.90;;;;;;5054795;28;20063;-63
2022/07/13 12:43:26;;;;;;;5.00;2.35;;;28.40;99.90;;;;;;5047693;28;20640;-63
2022/07/13 12:45:54;;;;;;;5.25;2.50;;;28.40;99.90;;;;;;5047560;28;20543;-63
2022/07/13 12:48:24;;;;;;;5.25;2.40;;;28.30;99.90;;;;;;5044630;28;20028;-63
2022/07/13 12:51:03;;;;;;;6.05;2.60;;;28.30;99.90;;;;;;5046225;28;20131;-63
2022/07/13 12:53:56;;;;;;;4.72;2.50;;;28.40;99.90;;;;;;5050688;28;20517;-63
2022/07/13 12:56:24;;;;;;;5.72;2.63;;;;;;;;;;5036633;28;20025;-63
2022/07/13 12:58:52;;;;;;;5.47;2.80;;;28.10;99.90;;;;;;5040391;28;20796;-63
2022/07/13 13:01:32;;;;;;;5.55;2.55;;;28.20;99.90;;;;;;5049509;28;20043;-63
2022/07/13 13:04:00;;;;;;;6.22;3.00;;;28.20;99.90;;;;;;5047861;28;20357;-63
2022/07/13 13:06:26;;;;;;;5.20;2.33;;;28.20;99.90;;;;;;5048171;28;20029;-63